sensor_id;sensor_type;location;lat;lon;timestamp;P1;durP1;ratioP1;P2;durP2;ratioP2
39958;SDS011;25639;53.634;9.880;2024-02-21T00:02:02;57.58;;;24.35;;
39958;SDS011;25639;53.634;9.880;2024-02-21T00:04:27;70.72;;;25.35;;
39958;SDS011;25639;53.634;9.880;2024-02-21T00:06:52;63.33;;;25.20;;
39958;SDS011;25639;53.634;9.880;2024-02-21T00:09:18;59.92;;;25.17;;
39958;SDS011;25639;53.634;9.880;2024-02-21T00:11:44;71.75;;;26.38;;
39958;SDS011;25639;53.634;9.880;2024-02-21T00:14:09;62.20;;;24.58;;
39958;SDS011;25639;53.634;9.880;2024-02-21T00:16:35;66.45;;;25.58;;
39958;SDS011;25639;53.634;9.880;2024-02-21T00:19:00;64.03;;;25.20;;
39958;SDS011;25639;53.634;9.880;2024-02-21T00:21:25;63.92;;;26.13;;
39958;SDS011;25639;53.634;9.880;2024-02-21T00:23:50;65.18;;;26.38;;
39958;SDS011;25639;53.634;9.880;2024-02-21T00:26:16;69.90;;;26.00;;
39958;SDS011;25639;53.634;9.880;2024-02-21T00:28:41;67.75;;;26.98;;
39958;SDS011;25639;53.634;9.880;2024-02-21T00:31:06;62.58;;;26.02;;
39958;SDS011;25639;53.634;9.880;2024-02-21T00:33:32;68.68;;;26.67;;
39958;SDS011;25639;53.634;9.880;2024-02-21T00:35:57;75.80;;;27.55;;
39958;SDS011;25639;53.634;9.880;2024-02-21T00:38:22;70.40;;;27.02;;
39958;SDS011;25639;53.634;9.880;2024-02-21T00:40:47;66.60;;;26.38;;
39958;SDS011;25639;53.634;9.880;2024-02-21T00:43:13;63.20;;;25.70;;
39958;SDS011;25639;53.634;9.880;2024-02-21T00:45:38;69.93;;;26.55;;
39958;SDS011;25639;53.634;9.880;2024-02-21T00:48:03;67.40;;;27.63;;
39958;SDS011;25639;53.634;9.880;2024-02-21T00:50:29;67.88;;;28.20;;
39958;SDS011;25639;53.634;9.880;2024-02-21T00:52:54;61.75;;;26.17;;
39958;SDS011;25639;53.634;9.880;2024-02-21T00:55:20;70.82;;;26.88;;
39958;SDS011;25639;53.634;9.880;2024-02-21T00:57:45;68.35;;;27.48;;
39958;SDS011;25639;53.634;9.880;2024-02-21T01:00:10;72.57;;;28.25;;
39958;SDS011;25639;53.634;9.880;2024-02-21T01:02:36;67.90;;;26.75;;
39958;SDS011;25639;53.634;9.880;2024-02-21T01:05:02;74.90;;;28.05;;
39958;SDS011;25639;53.634;9.880;2024-02-21T01:07:28;60.22;;;25.65;;
39958;SDS011;25639;53.634;9.880;2024-02-21T01:09:53;64.65;;;27.17;;
39958;SDS011;25639;53.634;9.880;2024-02-21T01:12:18;70.78;;;27.23;;
39958;SDS011;25639;53.634;9.880;2024-02-21T01:14:44;64.03;;;25.52;;
39958;SDS011;25639;53.634;9.880;2024-02-21T01:17:11;63.55;;;27.02;;
39958;SDS011;25639;53.634;9.880;2024-02-21T01:19:36;68.65;;;27.42;;
39958;SDS011;25639;53.634;9.880;2024-02-21T01:22:02;66.35;;;25.67;;
39958;SDS011;25639;53.634;9.880;2024-02-21T01:24:27;62.10;;;25.85;;
39958;SDS011;25639;53.634;9.880;2024-02-21T01:26:53;63.55;;;26.42;;
39958;SDS011;25639;53.634;9.880;2024-02-21T01:29:18;69.70;;;25.58;;
39958;SDS011;25639;53.634;9.880;2024-02-21T01:31:43;68.93;;;26.38;;
39958;SDS011;25639;53.634;9.880;2024-02-21T01:34:08;66.57;;;26.17;;
39958;SDS011;25639;53.634;9.880;2024-02-21T01:36:34;68.30;;;27.17;;
39958;SDS011;25639;53.634;9.880;2024-02-21T01:38:59;69.78;;;26.30;;
39958;SDS011;25639;53.634;9.880;2024-02-21T01:41:25;69.25;;;26.50;;
39958;SDS011;25639;53.634;9.880;2024-02-21T01:43:50;68.25;;;26.88;;
39958;SDS011;25639;53.634;9.880;2024-02-21T01:46:15;72.80;;;26.42;;
39958;SDS011;25639;53.634;9.880;2024-02-21T01:48:41;59.67;;;25.67;;
39958;SDS011;25639;53.634;9.880;2024-02-21T01:51:06;67.90;;;26.83;;
39958;SDS011;25639;53.634;9.880;2024-02-21T01:53:35;63.65;;;26.92;;
39958;SDS011;25639;53.634;9.880;2024-02-21T01:56:03;70.90;;;26.70;;
39958;SDS011;25639;53.634;9.880;2024-02-21T01:58:30;65.95;;;26.42;;
39958;SDS011;25639;53.634;9.880;2024-02-21T02:00:57;72.20;;;26.58;;
39958;SDS011;25639;53.634;9.880;2024-02-21T02:03:22;71.28;;;27.63;;
39958;SDS011;25639;53.634;9.880;2024-02-21T02:05:49;66.72;;;27.45;;
39958;SDS011;25639;53.634;9.880;2024-02-21T02:08:15;64.22;;;25.85;;
39958;SDS011;25639;53.634;9.880;2024-02-21T02:10:43;67.65;;;27.98;;
39958;SDS011;25639;53.634;9.880;2024-02-21T02:13:09;62.65;;;27.58;;
39958;SDS011;25639;53.634;9.880;2024-02-21T02:15:39;72.47;;;28.88;;
39958;SDS011;25639;53.634;9.880;2024-02-21T02:18:08;65.88;;;29.67;;
39958;SDS011;25639;53.634;9.880;2024-02-21T02:20:34;66.05;;;29.08;;
39958;SDS011;25639;53.634;9.880;2024-02-21T02:23:00;71.78;;;29.73;;
39958;SDS011;25639;53.634;9.880;2024-02-21T02:25:32;78.90;;;30.63;;
39958;SDS011;25639;53.634;9.880;2024-02-21T02:27:58;75.88;;;30.00;;
39958;SDS011;25639;53.634;9.880;2024-02-21T02:30:24;72.07;;;30.33;;
39958;SDS011;25639;53.634;9.880;2024-02-21T02:32:49;84.03;;;31.15;;
39958;SDS011;25639;53.634;9.880;2024-02-21T02:35:15;77.40;;;31.33;;
39958;SDS011;25639;53.634;9.880;2024-02-21T02:37:40;74.95;;;31.83;;
39958;SDS011;25639;53.634;9.880;2024-02-21T02:40:12;72.85;;;31.85;;
39958;SDS011;25639;53.634;9.880;2024-02-21T02:42:37;85.95;;;31.30;;
39958;SDS011;25639;53.634;9.880;2024-02-21T02:45:03;78.50;;;31.23;;
39958;SDS011;25639;53.634;9.880;2024-02-21T02:47:28;79.22;;;32.50;;
39958;SDS011;25639;53.634;9.880;2024-02-21T02:49:53;80.50;;;31.67;;
39958;SDS011;25639;53.634;9.880;2024-02-21T02:52:19;76.63;;;29.90;;
39958;SDS011;25639;53.634;9.880;2024-02-21T02:54:44;94.95;;;33.10;;
39958;SDS011;25639;53.634;9.880;2024-02-21T02:57:10;79.60;;;34.30;;
39958;SDS011;25639;53.634;9.880;2024-02-21T02:59:35;90.88;;;32.90;;
39958;SDS011;25639;53.634;9.880;2024-02-21T03:02:00;88.97;;;33.00;;
39958;SDS011;25639;53.634;9.880;2024-02-21T03:04:26;79.03;;;32.38;;
39958;SDS011;25639;53.634;9.880;2024-02-21T03:06:51;76.68;;;33.00;;
39958;SDS011;25639;53.634;9.880;2024-02-21T03:09:16;90.28;;;32.33;;
39958;SDS011;25639;53.634;9.880;2024-02-21T03:11:42;77.57;;;33.08;;
39958;SDS011;25639;53.634;9.880;2024-02-21T03:14:09;83.88;;;33.67;;
39958;SDS011;25639;53.634;9.880;2024-02-21T03:16:34;79.40;;;33.05;;
39958;SDS011;25639;53.634;9.880;2024-02-21T03:19:00;80.03;;;32.03;;
39958;SDS011;25639;53.634;9.880;2024-02-21T03:21:26;76.18;;;31.85;;
39958;SDS011;25639;53.634;9.880;2024-02-21T03:23:51;79.55;;;32.00;;
39958;SDS011;25639;53.634;9.880;2024-02-21T03:26:16;74.78;;;30.92;;
39958;SDS011;25639;53.634;9.880;2024-02-21T03:28:42;80.72;;;31.42;;
39958;SDS011;25639;53.634;9.880;2024-02-21T03:31:10;74.18;;;30.40;;
39958;SDS011;25639;53.634;9.880;2024-02-21T03:33:36;78.85;;;31.70;;
39958;SDS011;25639;53.634;9.880;2024-02-21T03:36:01;87.40;;;29.92;;
39958;SDS011;25639;53.634;9.880;2024-02-21T03:38:27;67.18;;;29.40;;
39958;SDS011;25639;53.634;9.880;2024-02-21T03:40:52;82.05;;;29.77;;
39958;SDS011;25639;53.634;9.880;2024-02-21T03:43:17;70.22;;;28.38;;
39958;SDS011;25639;53.634;9.880;2024-02-21T03:45:42;71.95;;;29.05;;
39958;SDS011;25639;53.634;9.880;2024-02-21T03:48:07;65.90;;;27.92;;
39958;SDS011;25639;53.634;9.880;2024-02-21T03:50:33;56.85;;;26.42;;
39958;SDS011;25639;53.634;9.880;2024-02-21T03:52:58;70.88;;;27.85;;
39958;SDS011;25639;53.634;9.880;2024-02-21T03:55:23;70.82;;;28.23;;
39958;SDS011;25639;53.634;9.880;2024-02-21T03:57:48;58.45;;;26.45;;
39958;SDS011;25639;53.634;9.880;2024-02-21T04:00:14;72.28;;;27.23;;
39958;SDS011;25639;53.634;9.880;2024-02-21T04:02:39;61.38;;;26.40;;
39958;SDS011;25639;53.634;9.880;2024-02-21T04:05:05;70.65;;;28.15;;
39958;SDS011;25639;53.634;9.880;2024-02-21T04:07:31;66.18;;;27.60;;
39958;SDS011;25639;53.634;9.880;2024-02-21T04:09:56;65.57;;;25.83;;
39958;SDS011;25639;53.634;9.880;2024-02-21T04:12:21;57.53;;;26.63;;
39958;SDS011;25639;53.634;9.880;2024-02-21T04:14:47;58.67;;;25.67;;
39958;SDS011;25639;53.634;9.880;2024-02-21T04:17:12;62.83;;;25.80;;
39958;SDS011;25639;53.634;9.880;2024-02-21T04:19:37;70.28;;;26.63;;
39958;SDS011;25639;53.634;9.880;2024-02-21T04:22:03;60.63;;;24.98;;
39958;SDS011;25639;53.634;9.880;2024-02-21T04:24:28;62.70;;;24.20;;
39958;SDS011;25639;53.634;9.880;2024-02-21T04:26:54;51.63;;;24.55;;
39958;SDS011;25639;53.634;9.880;2024-02-21T04:29:19;54.67;;;24.17;;
39958;SDS011;25639;53.634;9.880;2024-02-21T04:31:44;58.88;;;24.35;;
39958;SDS011;25639;53.634;9.880;2024-02-21T04:34:10;57.65;;;25.10;;
39958;SDS011;25639;53.634;9.880;2024-02-21T04:36:35;51.22;;;25.27;;
39958;SDS011;25639;53.634;9.880;2024-02-21T04:39:02;63.33;;;26.20;;
39958;SDS011;25639;53.634;9.880;2024-02-21T04:41:27;52.58;;;24.35;;
39958;SDS011;25639;53.634;9.880;2024-02-21T04:43:52;52.63;;;23.27;;
39958;SDS011;25639;53.634;9.880;2024-02-21T04:46:18;46.33;;;22.80;;
39958;SDS011;25639;53.634;9.880;2024-02-21T04:48:43;54.30;;;24.55;;
39958;SDS011;25639;53.634;9.880;2024-02-21T04:51:08;53.65;;;24.15;;
39958;SDS011;25639;53.634;9.880;2024-02-21T04:53:34;50.53;;;21.48;;
39958;SDS011;25639;53.634;9.880;2024-02-21T04:55:59;44.50;;;22.42;;
39958;SDS011;25639;53.634;9.880;2024-02-21T04:58:24;51.58;;;22.55;;
39958;SDS011;25639;53.634;9.880;2024-02-21T05:00:50;46.40;;;22.40;;
39958;SDS011;25639;53.634;9.880;2024-02-21T05:03:16;47.75;;;20.67;;
39958;SDS011;25639;53.634;9.880;2024-02-21T05:05:41;51.40;;;21.90;;
39958;SDS011;25639;53.634;9.880;2024-02-21T05:08:07;48.70;;;21.45;;
39958;SDS011;25639;53.634;9.880;2024-02-21T05:10:32;44.47;;;20.38;;
39958;SDS011;25639;53.634;9.880;2024-02-21T05:12:58;39.03;;;19.48;;
39958;SDS011;25639;53.634;9.880;2024-02-21T05:15:23;43.17;;;20.02;;
39958;SDS011;25639;53.634;9.880;2024-02-21T05:17:48;40.95;;;17.77;;
39958;SDS011;25639;53.634;9.880;2024-02-21T05:20:14;44.55;;;17.80;;
39958;SDS011;25639;53.634;9.880;2024-02-21T05:22:39;39.05;;;18.23;;
39958;SDS011;25639;53.634;9.880;2024-02-21T05:25:04;34.10;;;17.15;;
39958;SDS011;25639;53.634;9.880;2024-02-21T05:27:31;37.15;;;16.52;;
39958;SDS011;25639;53.634;9.880;2024-02-21T05:29:56;33.05;;;15.98;;
39958;SDS011;25639;53.634;9.880;2024-02-21T05:32:21;31.88;;;16.00;;
39958;SDS011;25639;53.634;9.880;2024-02-21T05:34:49;28.55;;;14.57;;
39958;SDS011;25639;53.634;9.880;2024-02-21T05:37:15;34.42;;;15.65;;
39958;SDS011;25639;53.634;9.880;2024-02-21T05:39:40;32.70;;;15.23;;
39958;SDS011;25639;53.634;9.880;2024-02-21T05:42:06;29.30;;;14.52;;
39958;SDS011;25639;53.634;9.880;2024-02-21T05:44:31;34.58;;;14.85;;
39958;SDS011;25639;53.634;9.880;2024-02-21T05:46:57;27.98;;;14.43;;
39958;SDS011;25639;53.634;9.880;2024-02-21T05:49:22;29.63;;;14.50;;
39958;SDS011;25639;53.634;9.880;2024-02-21T05:51:47;31.10;;;14.07;;
39958;SDS011;25639;53.634;9.880;2024-02-21T05:54:12;29.35;;;13.63;;
39958;SDS011;25639;53.634;9.880;2024-02-21T05:56:38;30.15;;;14.52;;
39958;SDS011;25639;53.634;9.880;2024-02-21T05:59:03;26.33;;;13.15;;
39958;SDS011;25639;53.634;9.880;2024-02-21T06:01:28;26.65;;;13.38;;
39958;SDS011;25639;53.634;9.880;2024-02-21T06:03:53;25.83;;;12.20;;
39958;SDS011;25639;53.634;9.880;2024-02-21T06:06:19;22.70;;;12.10;;
39958;SDS011;25639;53.634;9.880;2024-02-21T06:08:46;20.52;;;10.93;;
39958;SDS011;25639;53.634;9.880;2024-02-21T06:11:12;19.08;;;9.40;;
39958;SDS011;25639;53.634;9.880;2024-02-21T06:13:40;17.38;;;8.82;;
39958;SDS011;25639;53.634;9.880;2024-02-21T06:16:06;16.88;;;8.85;;
39958;SDS011;25639;53.634;9.880;2024-02-21T06:18:32;16.05;;;8.55;;
39958;SDS011;25639;53.634;9.880;2024-02-21T06:20:57;16.10;;;8.18;;
39958;SDS011;25639;53.634;9.880;2024-02-21T06:23:23;15.88;;;8.23;;
39958;SDS011;25639;53.634;9.880;2024-02-21T06:25:48;15.32;;;7.25;;
39958;SDS011;25639;53.634;9.880;2024-02-21T06:28:13;11.02;;;6.82;;
39958;SDS011;25639;53.634;9.880;2024-02-21T06:30:39;9.18;;;5.00;;
39958;SDS011;25639;53.634;9.880;2024-02-21T06:33:05;9.70;;;5.97;;
39958;SDS011;25639;53.634;9.880;2024-02-21T06:35:30;12.65;;;5.85;;
39958;SDS011;25639;53.634;9.880;2024-02-21T06:37:56;9.15;;;5.32;;
39958;SDS011;25639;53.634;9.880;2024-02-21T06:40:22;8.18;;;5.05;;
39958;SDS011;25639;53.634;9.880;2024-02-21T06:42:48;8.77;;;5.55;;
39958;SDS011;25639;53.634;9.880;2024-02-21T06:45:13;7.60;;;4.88;;
39958;SDS011;25639;53.634;9.880;2024-02-21T06:47:39;9.13;;;5.10;;
39958;SDS011;25639;53.634;9.880;2024-02-21T06:50:04;8.73;;;4.93;;
39958;SDS011;25639;53.634;9.880;2024-02-21T06:52:33;9.05;;;4.70;;
39958;SDS011;25639;53.634;9.880;2024-02-21T06:54:59;9.93;;;5.30;;
39958;SDS011;25639;53.634;9.880;2024-02-21T06:57:24;8.10;;;5.32;;
39958;SDS011;25639;53.634;9.880;2024-02-21T06:59:50;9.40;;;5.75;;
39958;SDS011;25639;53.634;9.880;2024-02-21T07:02:15;10.00;;;5.38;;
39958;SDS011;25639;53.634;9.880;2024-02-21T07:04:40;9.82;;;5.60;;
39958;SDS011;25639;53.634;9.880;2024-02-21T07:07:06;10.80;;;5.30;;
39958;SDS011;25639;53.634;9.880;2024-02-21T07:09:31;10.57;;;5.75;;
39958;SDS011;25639;53.634;9.880;2024-02-21T07:12:00;10.75;;;5.50;;
39958;SDS011;25639;53.634;9.880;2024-02-21T07:14:25;9.35;;;5.32;;
39958;SDS011;25639;53.634;9.880;2024-02-21T07:16:51;11.85;;;6.22;;
39958;SDS011;25639;53.634;9.880;2024-02-21T07:19:16;9.30;;;5.13;;
39958;SDS011;25639;53.634;9.880;2024-02-21T07:21:42;9.30;;;4.82;;
39958;SDS011;25639;53.634;9.880;2024-02-21T07:24:07;7.40;;;4.63;;
39958;SDS011;25639;53.634;9.880;2024-02-21T07:26:33;10.55;;;4.32;;
39958;SDS011;25639;53.634;9.880;2024-02-21T07:28:59;10.82;;;4.78;;
39958;SDS011;25639;53.634;9.880;2024-02-21T07:31:24;13.93;;;4.72;;
39958;SDS011;25639;53.634;9.880;2024-02-21T07:33:49;14.35;;;5.10;;
39958;SDS011;25639;53.634;9.880;2024-02-21T07:36:15;19.88;;;5.18;;
39958;SDS011;25639;53.634;9.880;2024-02-21T07:38:40;21.55;;;5.32;;
39958;SDS011;25639;53.634;9.880;2024-02-21T07:41:06;21.70;;;6.40;;
39958;SDS011;25639;53.634;9.880;2024-02-21T07:43:31;23.02;;;6.57;;
39958;SDS011;25639;53.634;9.880;2024-02-21T07:45:57;28.30;;;6.13;;
39958;SDS011;25639;53.634;9.880;2024-02-21T07:48:22;25.35;;;5.80;;
39958;SDS011;25639;53.634;9.880;2024-02-21T07:50:51;21.58;;;7.00;;
39958;SDS011;25639;53.634;9.880;2024-02-21T07:53:16;23.63;;;6.38;;
39958;SDS011;25639;53.634;9.880;2024-02-21T07:55:42;29.23;;;6.47;;
39958;SDS011;25639;53.634;9.880;2024-02-21T07:58:07;34.17;;;6.90;;
39958;SDS011;25639;53.634;9.880;2024-02-21T08:00:33;28.55;;;7.63;;
39958;SDS011;25639;53.634;9.880;2024-02-21T08:02:58;35.40;;;6.80;;
39958;SDS011;25639;53.634;9.880;2024-02-21T08:05:23;27.52;;;6.03;;
39958;SDS011;25639;53.634;9.880;2024-02-21T08:07:49;33.38;;;5.95;;
39958;SDS011;25639;53.634;9.880;2024-02-21T08:10:14;22.45;;;5.85;;
39958;SDS011;25639;53.634;9.880;2024-02-21T08:12:40;25.02;;;5.38;;
39958;SDS011;25639;53.634;9.880;2024-02-21T08:15:05;23.02;;;5.60;;
39958;SDS011;25639;53.634;9.880;2024-02-21T08:17:33;21.27;;;5.38;;
39958;SDS011;25639;53.634;9.880;2024-02-21T08:19:58;32.65;;;6.00;;
39958;SDS011;25639;53.634;9.880;2024-02-21T08:22:23;28.42;;;6.70;;
39958;SDS011;25639;53.634;9.880;2024-02-21T08:24:49;31.48;;;5.55;;
39958;SDS011;25639;53.634;9.880;2024-02-21T08:27:14;39.10;;;5.97;;
39958;SDS011;25639;53.634;9.880;2024-02-21T08:29:39;26.58;;;5.95;;
39958;SDS011;25639;53.634;9.880;2024-02-21T08:32:05;37.20;;;5.72;;
39958;SDS011;25639;53.634;9.880;2024-02-21T08:34:30;37.92;;;6.25;;
39958;SDS011;25639;53.634;9.880;2024-02-21T08:36:58;26.92;;;5.10;;
39958;SDS011;25639;53.634;9.880;2024-02-21T08:39:24;32.88;;;6.30;;
39958;SDS011;25639;53.634;9.880;2024-02-21T08:41:49;29.10;;;6.13;;
39958;SDS011;25639;53.634;9.880;2024-02-21T08:44:16;34.65;;;6.80;;
39958;SDS011;25639;53.634;9.880;2024-02-21T08:46:41;32.22;;;6.13;;
39958;SDS011;25639;53.634;9.880;2024-02-21T08:49:06;24.25;;;4.70;;
39958;SDS011;25639;53.634;9.880;2024-02-21T08:51:32;28.67;;;6.05;;
39958;SDS011;25639;53.634;9.880;2024-02-21T08:53:57;31.52;;;4.90;;
39958;SDS011;25639;53.634;9.880;2024-02-21T08:56:23;22.08;;;4.72;;
39958;SDS011;25639;53.634;9.880;2024-02-21T08:58:48;30.25;;;6.05;;
39958;SDS011;25639;53.634;9.880;2024-02-21T09:01:14;32.95;;;5.85;;
39958;SDS011;25639;53.634;9.880;2024-02-21T09:03:40;29.10;;;5.53;;
39958;SDS011;25639;53.634;9.880;2024-02-21T09:06:05;31.80;;;5.43;;
39958;SDS011;25639;53.634;9.880;2024-02-21T09:08:31;29.35;;;6.43;;
39958;SDS011;25639;53.634;9.880;2024-02-21T09:10:57;28.25;;;6.28;;
39958;SDS011;25639;53.634;9.880;2024-02-21T09:13:22;26.42;;;5.15;;
39958;SDS011;25639;53.634;9.880;2024-02-21T09:15:48;34.50;;;5.72;;
39958;SDS011;25639;53.634;9.880;2024-02-21T09:18:14;26.02;;;5.50;;
39958;SDS011;25639;53.634;9.880;2024-02-21T09:20:41;18.90;;;4.40;;
39958;SDS011;25639;53.634;9.880;2024-02-21T09:23:06;20.02;;;4.60;;
39958;SDS011;25639;53.634;9.880;2024-02-21T09:25:31;24.92;;;4.40;;
39958;SDS011;25639;53.634;9.880;2024-02-21T09:27:57;23.10;;;4.60;;
39958;SDS011;25639;53.634;9.880;2024-02-21T09:30:23;29.33;;;5.72;;
39958;SDS011;25639;53.634;9.880;2024-02-21T09:32:49;26.58;;;5.03;;
39958;SDS011;25639;53.634;9.880;2024-02-21T09:35:14;22.60;;;4.38;;
39958;SDS011;25639;53.634;9.880;2024-02-21T09:37:40;30.80;;;5.43;;
39958;SDS011;25639;53.634;9.880;2024-02-21T09:40:05;18.27;;;3.70;;
39958;SDS011;25639;53.634;9.880;2024-02-21T09:45:23;25.55;;;4.18;;
39958;SDS011;25639;53.634;9.880;2024-02-21T09:50:50;17.88;;;3.78;;
39958;SDS011;25639;53.634;9.880;2024-02-21T09:53:18;13.05;;;3.67;;
39958;SDS011;25639;53.634;9.880;2024-02-21T09:55:44;23.67;;;3.92;;
39958;SDS011;25639;53.634;9.880;2024-02-21T09:58:11;16.33;;;4.13;;
39958;SDS011;25639;53.634;9.880;2024-02-21T10:00:36;16.33;;;3.78;;
39958;SDS011;25639;53.634;9.880;2024-02-21T10:03:02;17.85;;;3.67;;
39958;SDS011;25639;53.634;9.880;2024-02-21T10:05:33;13.02;;;3.78;;
39958;SDS011;25639;53.634;9.880;2024-02-21T10:07:59;11.95;;;3.90;;
39958;SDS011;25639;53.634;9.880;2024-02-21T10:10:24;16.42;;;3.50;;
39958;SDS011;25639;53.634;9.880;2024-02-21T10:12:50;11.23;;;3.97;;
39958;SDS011;25639;53.634;9.880;2024-02-21T10:15:19;14.98;;;3.70;;
39958;SDS011;25639;53.634;9.880;2024-02-21T10:17:48;10.90;;;4.18;;
39958;SDS011;25639;53.634;9.880;2024-02-21T10:20:14;12.00;;;4.85;;
39958;SDS011;25639;53.634;9.880;2024-02-21T10:22:41;14.38;;;5.53;;
39958;SDS011;25639;53.634;9.880;2024-02-21T10:25:07;11.18;;;6.05;;
39958;SDS011;25639;53.634;9.880;2024-02-21T10:27:36;14.90;;;7.95;;
39958;SDS011;25639;53.634;9.880;2024-02-21T10:30:03;18.95;;;8.90;;
39958;SDS011;25639;53.634;9.880;2024-02-21T10:32:30;15.80;;;8.52;;
39958;SDS011;25639;53.634;9.880;2024-02-21T10:35:01;16.88;;;9.48;;
39958;SDS011;25639;53.634;9.880;2024-02-21T10:37:31;19.73;;;10.05;;
39958;SDS011;25639;53.634;9.880;2024-02-21T10:40:00;22.30;;;11.43;;
39958;SDS011;25639;53.634;9.880;2024-02-21T10:42:28;23.67;;;11.73;;
39958;SDS011;25639;53.634;9.880;2024-02-21T10:44:55;28.02;;;13.40;;
39958;SDS011;25639;53.634;9.880;2024-02-21T10:47:26;28.77;;;14.07;;
39958;SDS011;25639;53.634;9.880;2024-02-21T10:50:02;28.02;;;14.98;;
39958;SDS011;25639;53.634;9.880;2024-02-21T10:52:39;30.67;;;14.88;;
39958;SDS011;25639;53.634;9.880;2024-02-21T10:55:18;33.88;;;16.42;;
39958;SDS011;25639;53.634;9.880;2024-02-21T10:57:48;28.27;;;16.05;;
39958;SDS011;25639;53.634;9.880;2024-02-21T11:00:15;39.45;;;18.92;;
39958;SDS011;25639;53.634;9.880;2024-02-21T11:02:42;36.70;;;18.90;;
39958;SDS011;25639;53.634;9.880;2024-02-21T11:05:08;50.42;;;22.23;;
39958;SDS011;25639;53.634;9.880;2024-02-21T11:07:35;48.35;;;23.00;;
39958;SDS011;25639;53.634;9.880;2024-02-21T11:10:01;46.88;;;23.42;;
39958;SDS011;25639;53.634;9.880;2024-02-21T11:12:26;50.60;;;25.85;;
39958;SDS011;25639;53.634;9.880;2024-02-21T11:14:52;55.83;;;27.13;;
39958;SDS011;25639;53.634;9.880;2024-02-21T11:17:18;54.15;;;27.35;;
39958;SDS011;25639;53.634;9.880;2024-02-21T11:19:46;57.00;;;28.30;;
39958;SDS011;25639;53.634;9.880;2024-02-21T11:22:18;53.00;;;27.30;;
39958;SDS011;25639;53.634;9.880;2024-02-21T11:24:47;60.85;;;28.92;;
39958;SDS011;25639;53.634;9.880;2024-02-21T11:27:16;51.97;;;27.27;;
39958;SDS011;25639;53.634;9.880;2024-02-21T11:29:57;64.70;;;28.05;;
39958;SDS011;25639;53.634;9.880;2024-02-21T11:32:23;56.53;;;28.20;;
39958;SDS011;25639;53.634;9.880;2024-02-21T11:34:56;56.83;;;28.48;;
39958;SDS011;25639;53.634;9.880;2024-02-21T11:37:26;62.53;;;28.58;;
39958;SDS011;25639;53.634;9.880;2024-02-21T11:39:53;58.03;;;25.63;;
39958;SDS011;25639;53.634;9.880;2024-02-21T11:42:19;56.13;;;25.05;;
39958;SDS011;25639;53.634;9.880;2024-02-21T11:44:45;46.38;;;23.88;;
39958;SDS011;25639;53.634;9.880;2024-02-21T11:47:10;44.20;;;21.92;;
39958;SDS011;25639;53.634;9.880;2024-02-21T11:49:39;43.35;;;21.60;;
39958;SDS011;25639;53.634;9.880;2024-02-21T11:52:09;42.85;;;20.75;;
39958;SDS011;25639;53.634;9.880;2024-02-21T11:54:34;44.55;;;19.52;;
39958;SDS011;25639;53.634;9.880;2024-02-21T11:57:00;40.35;;;19.58;;
39958;SDS011;25639;53.634;9.880;2024-02-21T11:59:26;41.70;;;18.83;;
39958;SDS011;25639;53.634;9.880;2024-02-21T12:01:52;36.03;;;17.50;;
39958;SDS011;25639;53.634;9.880;2024-02-21T12:04:18;36.00;;;17.08;;
39958;SDS011;25639;53.634;9.880;2024-02-21T12:06:45;33.08;;;16.08;;
39958;SDS011;25639;53.634;9.880;2024-02-21T12:09:16;29.85;;;15.70;;
39958;SDS011;25639;53.634;9.880;2024-02-21T12:11:42;39.40;;;17.10;;
39958;SDS011;25639;53.634;9.880;2024-02-21T12:14:08;41.15;;;16.23;;
39958;SDS011;25639;53.634;9.880;2024-02-21T12:16:34;37.30;;;17.00;;
39958;SDS011;25639;53.634;9.880;2024-02-21T12:19:02;36.00;;;15.95;;
39958;SDS011;25639;53.634;9.880;2024-02-21T12:21:32;38.95;;;17.85;;
39958;SDS011;25639;53.634;9.880;2024-02-21T12:23:59;41.60;;;19.20;;
39958;SDS011;25639;53.634;9.880;2024-02-21T12:26:25;40.40;;;17.70;;
39958;SDS011;25639;53.634;9.880;2024-02-21T12:28:51;41.00;;;18.02;;
39958;SDS011;25639;53.634;9.880;2024-02-21T12:31:18;44.22;;;18.05;;
39958;SDS011;25639;53.634;9.880;2024-02-21T12:33:43;37.97;;;17.13;;
39958;SDS011;25639;53.634;9.880;2024-02-21T12:36:08;41.17;;;16.80;;
39958;SDS011;25639;53.634;9.880;2024-02-21T12:38:34;33.97;;;16.63;;
39958;SDS011;25639;53.634;9.880;2024-02-21T12:41:00;37.33;;;16.92;;
39958;SDS011;25639;53.634;9.880;2024-02-21T12:43:26;35.25;;;15.85;;
39958;SDS011;25639;53.634;9.880;2024-02-21T12:45:51;36.95;;;16.98;;
39958;SDS011;25639;53.634;9.880;2024-02-21T12:48:17;34.90;;;17.45;;
39958;SDS011;25639;53.634;9.880;2024-02-21T12:50:48;38.17;;;17.40;;
39958;SDS011;25639;53.634;9.880;2024-02-21T12:53:15;34.58;;;16.83;;
39958;SDS011;25639;53.634;9.880;2024-02-21T12:55:41;37.08;;;16.73;;
39958;SDS011;25639;53.634;9.880;2024-02-21T12:58:06;41.58;;;17.40;;
39958;SDS011;25639;53.634;9.880;2024-02-21T13:00:32;35.28;;;16.80;;
39958;SDS011;25639;53.634;9.880;2024-02-21T13:02:57;38.00;;;17.90;;
39958;SDS011;25639;53.634;9.880;2024-02-21T13:05:23;36.05;;;17.48;;
39958;SDS011;25639;53.634;9.880;2024-02-21T13:07:48;42.42;;;18.08;;
39958;SDS011;25639;53.634;9.880;2024-02-21T13:10:13;40.13;;;17.92;;
39958;SDS011;25639;53.634;9.880;2024-02-21T13:12:39;37.75;;;17.60;;
39958;SDS011;25639;53.634;9.880;2024-02-21T13:15:04;44.97;;;18.13;;
39958;SDS011;25639;53.634;9.880;2024-02-21T13:17:30;40.53;;;17.95;;
39958;SDS011;25639;53.634;9.880;2024-02-21T13:19:56;37.00;;;18.00;;
39958;SDS011;25639;53.634;9.880;2024-02-21T13:22:22;42.90;;;17.92;;
39958;SDS011;25639;53.634;9.880;2024-02-21T13:24:50;42.83;;;17.48;;
39958;SDS011;25639;53.634;9.880;2024-02-21T13:27:15;45.88;;;18.30;;
39958;SDS011;25639;53.634;9.880;2024-02-21T13:29:41;42.92;;;18.60;;
39958;SDS011;25639;53.634;9.880;2024-02-21T13:32:06;44.75;;;17.98;;
39958;SDS011;25639;53.634;9.880;2024-02-21T13:34:31;35.47;;;17.58;;
39958;SDS011;25639;53.634;9.880;2024-02-21T13:36:57;42.50;;;16.80;;
39958;SDS011;25639;53.634;9.880;2024-02-21T13:39:23;35.45;;;18.27;;
39958;SDS011;25639;53.634;9.880;2024-02-21T13:41:48;39.35;;;17.98;;
39958;SDS011;25639;53.634;9.880;2024-02-21T13:44:14;34.33;;;17.73;;
39958;SDS011;25639;53.634;9.880;2024-02-21T13:46:39;37.92;;;18.25;;
39958;SDS011;25639;53.634;9.880;2024-02-21T13:49:05;37.90;;;17.35;;
39958;SDS011;25639;53.634;9.880;2024-02-21T13:51:33;33.75;;;17.75;;
39958;SDS011;25639;53.634;9.880;2024-02-21T13:54:03;33.78;;;16.92;;
39958;SDS011;25639;53.634;9.880;2024-02-21T13:56:29;38.20;;;17.38;;
39958;SDS011;25639;53.634;9.880;2024-02-21T13:58:54;32.83;;;15.65;;
39958;SDS011;25639;53.634;9.880;2024-02-21T14:01:20;37.83;;;16.52;;
39958;SDS011;25639;53.634;9.880;2024-02-21T14:03:45;39.38;;;16.98;;
39958;SDS011;25639;53.634;9.880;2024-02-21T14:06:10;35.28;;;17.05;;
39958;SDS011;25639;53.634;9.880;2024-02-21T14:08:36;36.67;;;16.17;;
39958;SDS011;25639;53.634;9.880;2024-02-21T14:11:04;36.50;;;16.13;;
39958;SDS011;25639;53.634;9.880;2024-02-21T14:13:30;36.67;;;17.23;;
39958;SDS011;25639;53.634;9.880;2024-02-21T14:15:56;37.63;;;16.05;;
39958;SDS011;25639;53.634;9.880;2024-02-21T14:18:21;39.65;;;18.35;;
39958;SDS011;25639;53.634;9.880;2024-02-21T14:20:46;36.30;;;15.77;;
39958;SDS011;25639;53.634;9.880;2024-02-21T14:23:12;30.92;;;14.63;;
39958;SDS011;25639;53.634;9.880;2024-02-21T14:25:38;37.22;;;15.73;;